Terminal Aerodrome Forecast
Issued by NWS Atlanta, GA

Home | Current Version | Previous Version | Text Only | Print | Product List | Glossary On
Versions: 1 2 3 4 5 6 7 8 9 10 11 12 13 14 15 16 17 18 19 20 21 22 23 24 25 26 27 28 29 30 31 32 33 34 35 36
846
FTUS42 KFFC 142345
TAFAHN
TAF
KAHN 142345Z 1500/1524 12010KT P6SM SCT060
     FM150400 11008KT P6SM BKN030
     FM150700 11008KT P6SM OVC015
     FM151100 12008KT P6SM VCSH OVC012 PROB30 1511/1517 6SM -DZ BR
      OVC007
     FM151700 13009KT 5SM BR VCSH OVC006
     FM152100 14010KT 4SM -RA BR OVC004=

USA.gov is the U.S. government's official web portal to all federal, state and local government web resources and services.